sensor_id;sensor_type;location;lat;lon;timestamp;temperature;humidity
2611;DHT22;5612;51.134;17.058;2023-11-19T00:02:04;3.40;99.90
2611;DHT22;5612;51.134;17.058;2023-11-19T00:04:38;3.40;99.90
2611;DHT22;5612;51.134;17.058;2023-11-19T00:07:07;3.50;99.90
2611;DHT22;5612;51.134;17.058;2023-11-19T00:09:37;3.50;99.90
2611;DHT22;5612;51.134;17.058;2023-11-19T00:12:07;3.50;99.90
2611;DHT22;5612;51.134;17.058;2023-11-19T00:14:35;3.40;99.90
2611;DHT22;5612;51.134;17.058;2023-11-19T00:17:04;3.30;99.90
2611;DHT22;5612;51.134;17.058;2023-11-19T00:19:33;3.30;99.90
2611;DHT22;5612;51.134;17.058;2023-11-19T00:22:04;3.20;99.90
2611;DHT22;5612;51.134;17.058;2023-11-19T00:24:32;3.20;99.90
2611;DHT22;5612;51.134;17.058;2023-11-19T00:27:01;3.30;99.90
2611;DHT22;5612;51.134;17.058;2023-11-19T00:29:30;3.30;99.90
2611;DHT22;5612;51.134;17.058;2023-11-19T00:31:59;3.30;99.90
2611;DHT22;5612;51.134;17.058;2023-11-19T00:34:28;3.30;99.90
2611;DHT22;5612;51.134;17.058;2023-11-19T00:36:57;3.30;99.90
2611;DHT22;5612;51.134;17.058;2023-11-19T00:39:27;3.20;99.90
2611;DHT22;5612;51.134;17.058;2023-11-19T00:41:55;3.10;99.90
2611;DHT22;5612;51.134;17.058;2023-11-19T00:44:24;3.00;99.90
2611;DHT22;5612;51.134;17.058;2023-11-19T00:46:53;3.10;99.90
2611;DHT22;5612;51.134;17.058;2023-11-19T00:49:21;3.00;99.90
2611;DHT22;5612;51.134;17.058;2023-11-19T00:51:50;3.00;99.90
2611;DHT22;5612;51.134;17.058;2023-11-19T00:54:19;3.00;99.90
2611;DHT22;5612;51.134;17.058;2023-11-19T00:56:49;3.00;99.90
2611;DHT22;5612;51.134;17.058;2023-11-19T00:59:19;2.90;99.90
2611;DHT22;5612;51.134;17.058;2023-11-19T01:01:48;3.00;99.90
2611;DHT22;5612;51.134;17.058;2023-11-19T01:04:18;2.90;99.90
2611;DHT22;5612;51.134;17.058;2023-11-19T01:06:47;2.90;99.90
2611;DHT22;5612;51.134;17.058;2023-11-19T01:09:16;2.80;99.90
2611;DHT22;5612;51.134;17.058;2023-11-19T01:11:45;2.80;99.90
2611;DHT22;5612;51.134;17.058;2023-11-19T01:14:15;2.70;99.90
2611;DHT22;5612;51.134;17.058;2023-11-19T01:16:44;2.60;99.90
2611;DHT22;5612;51.134;17.058;2023-11-19T01:19:13;2.60;99.90
2611;DHT22;5612;51.134;17.058;2023-11-19T01:21:44;2.60;99.90
2611;DHT22;5612;51.134;17.058;2023-11-19T01:24:13;2.60;99.90
2611;DHT22;5612;51.134;17.058;2023-11-19T01:26:43;2.50;99.90
2611;DHT22;5612;51.134;17.058;2023-11-19T01:29:13;2.50;99.90
2611;DHT22;5612;51.134;17.058;2023-11-19T01:31:45;2.40;99.90
2611;DHT22;5612;51.134;17.058;2023-11-19T01:34:14;2.40;99.90
2611;DHT22;5612;51.134;17.058;2023-11-19T01:36:43;2.40;99.90
2611;DHT22;5612;51.134;17.058;2023-11-19T01:39:13;2.40;99.90
2611;DHT22;5612;51.134;17.058;2023-11-19T01:41:43;2.50;99.90
2611;DHT22;5612;51.134;17.058;2023-11-19T01:44:12;2.60;99.90
2611;DHT22;5612;51.134;17.058;2023-11-19T01:46:43;2.50;99.90
2611;DHT22;5612;51.134;17.058;2023-11-19T01:49:14;2.50;99.90
2611;DHT22;5612;51.134;17.058;2023-11-19T01:51:44;2.50;99.90
2611;DHT22;5612;51.134;17.058;2023-11-19T01:54:14;2.50;99.90
2611;DHT22;5612;51.134;17.058;2023-11-19T01:56:43;2.50;99.90
2611;DHT22;5612;51.134;17.058;2023-11-19T01:59:12;2.60;99.90
2611;DHT22;5612;51.134;17.058;2023-11-19T02:01:43;2.60;99.90
2611;DHT22;5612;51.134;17.058;2023-11-19T02:04:12;2.50;99.90
2611;DHT22;5612;51.134;17.058;2023-11-19T02:06:42;2.50;99.90
2611;DHT22;5612;51.134;17.058;2023-11-19T02:09:11;2.50;99.90
2611;DHT22;5612;51.134;17.058;2023-11-19T02:11:40;2.50;99.90
2611;DHT22;5612;51.134;17.058;2023-11-19T02:14:09;2.50;99.90
2611;DHT22;5612;51.134;17.058;2023-11-19T02:16:38;2.60;99.90
2611;DHT22;5612;51.134;17.058;2023-11-19T02:19:08;2.60;99.90
2611;DHT22;5612;51.134;17.058;2023-11-19T02:21:38;2.60;99.90
2611;DHT22;5612;51.134;17.058;2023-11-19T02:24:08;2.60;99.90
2611;DHT22;5612;51.134;17.058;2023-11-19T02:26:45;2.60;99.90
2611;DHT22;5612;51.134;17.058;2023-11-19T02:29:17;2.60;99.90
2611;DHT22;5612;51.134;17.058;2023-11-19T02:31:46;2.60;99.90
2611;DHT22;5612;51.134;17.058;2023-11-19T02:34:15;2.60;99.90
2611;DHT22;5612;51.134;17.058;2023-11-19T02:36:43;2.60;99.90
2611;DHT22;5612;51.134;17.058;2023-11-19T02:39:14;2.60;99.90
2611;DHT22;5612;51.134;17.058;2023-11-19T02:41:48;2.50;99.90
2611;DHT22;5612;51.134;17.058;2023-11-19T02:44:21;2.60;99.90
2611;DHT22;5612;51.134;17.058;2023-11-19T02:46:50;2.60;99.90
2611;DHT22;5612;51.134;17.058;2023-11-19T02:49:19;2.60;92.20
2611;DHT22;5612;51.134;17.058;2023-11-19T02:51:48;2.60;97.30
2611;DHT22;5612;51.134;17.058;2023-11-19T02:54:16;2.60;99.50
2611;DHT22;5612;51.134;17.058;2023-11-19T02:56:45;2.60;92.30
2611;DHT22;5612;51.134;17.058;2023-11-19T02:59:23;2.50;92.70
2611;DHT22;5612;51.134;17.058;2023-11-19T03:01:55;2.50;99.90
2611;DHT22;5612;51.134;17.058;2023-11-19T03:04:24;2.60;99.90
2611;DHT22;5612;51.134;17.058;2023-11-19T03:06:59;2.50;93.70
2611;DHT22;5612;51.134;17.058;2023-11-19T03:09:34;2.50;92.80
2611;DHT22;5612;51.134;17.058;2023-11-19T03:12:04;2.50;83.00
2611;DHT22;5612;51.134;17.058;2023-11-19T03:14:35;2.50;77.20
2611;DHT22;5612;51.134;17.058;2023-11-19T03:17:04;2.40;92.80
2611;DHT22;5612;51.134;17.058;2023-11-19T03:19:33;2.40;99.90
2611;DHT22;5612;51.134;17.058;2023-11-19T03:22:01;2.40;99.90
2611;DHT22;5612;51.134;17.058;2023-11-19T03:24:30;2.40;99.90
2611;DHT22;5612;51.134;17.058;2023-11-19T03:26:59;2.40;99.90
2611;DHT22;5612;51.134;17.058;2023-11-19T03:29:28;2.40;93.50
2611;DHT22;5612;51.134;17.058;2023-11-19T03:31:58;2.40;94.40
2611;DHT22;5612;51.134;17.058;2023-11-19T03:34:27;2.40;96.50
2611;DHT22;5612;51.134;17.058;2023-11-19T03:36:56;2.40;79.80
2611;DHT22;5612;51.134;17.058;2023-11-19T03:39:25;2.40;75.00
2611;DHT22;5612;51.134;17.058;2023-11-19T03:41:54;2.40;91.10
2611;DHT22;5612;51.134;17.058;2023-11-19T03:44:23;2.40;74.30
2611;DHT22;5612;51.134;17.058;2023-11-19T03:46:53;2.40;78.50
2611;DHT22;5612;51.134;17.058;2023-11-19T03:49:24;2.40;73.20
2611;DHT22;5612;51.134;17.058;2023-11-19T03:51:52;2.40;79.70
2611;DHT22;5612;51.134;17.058;2023-11-19T03:54:21;2.40;72.70
2611;DHT22;5612;51.134;17.058;2023-11-19T03:56:50;2.30;69.70
2611;DHT22;5612;51.134;17.058;2023-11-19T03:59:19;2.20;74.50
2611;DHT22;5612;51.134;17.058;2023-11-19T04:01:48;2.20;88.00
2611;DHT22;5612;51.134;17.058;2023-11-19T04:04:18;2.20;91.40
2611;DHT22;5612;51.134;17.058;2023-11-19T04:06:48;2.20;87.90
2611;DHT22;5612;51.134;17.058;2023-11-19T04:09:17;2.20;71.90
2611;DHT22;5612;51.134;17.058;2023-11-19T04:11:46;2.30;76.30
2611;DHT22;5612;51.134;17.058;2023-11-19T04:14:14;2.30;72.10
2611;DHT22;5612;51.134;17.058;2023-11-19T04:16:45;2.30;52.30
2611;DHT22;5612;51.134;17.058;2023-11-19T04:19:15;2.30;59.30
2611;DHT22;5612;51.134;17.058;2023-11-19T04:21:43;2.40;43.00
2611;DHT22;5612;51.134;17.058;2023-11-19T04:24:14;2.30;43.00
2611;DHT22;5612;51.134;17.058;2023-11-19T04:26:43;2.30;49.20
2611;DHT22;5612;51.134;17.058;2023-11-19T04:29:13;2.30;51.70
2611;DHT22;5612;51.134;17.058;2023-11-19T04:31:42;2.30;29.80
2611;DHT22;5612;51.134;17.058;2023-11-19T04:34:11;2.30;36.70
2611;DHT22;5612;51.134;17.058;2023-11-19T04:36:40;2.20;35.70
2611;DHT22;5612;51.134;17.058;2023-11-19T04:39:07;2.30;43.50
2611;DHT22;5612;51.134;17.058;2023-11-19T04:41:47;2.30;24.00
2611;DHT22;5612;51.134;17.058;2023-11-19T04:44:16;2.30;28.40
2611;DHT22;5612;51.134;17.058;2023-11-19T04:46:45;2.30;21.00
2611;DHT22;5612;51.134;17.058;2023-11-19T04:49:15;2.30;25.20
2611;DHT22;5612;51.134;17.058;2023-11-19T04:51:45;2.40;2.30
2611;DHT22;5612;51.134;17.058;2023-11-19T04:54:14;2.40;4.10
2611;DHT22;5612;51.134;17.058;2023-11-19T04:56:47;2.40;5.30
2611;DHT22;5612;51.134;17.058;2023-11-19T04:59:16;2.40;1.00
2611;DHT22;5612;51.134;17.058;2023-11-19T05:01:46;2.50;1.00
2611;DHT22;5612;51.134;17.058;2023-11-19T05:04:15;2.40;1.00
2611;DHT22;5612;51.134;17.058;2023-11-19T05:06:46;2.50;1.00
2611;DHT22;5612;51.134;17.058;2023-11-19T05:09:15;2.50;1.00
2611;DHT22;5612;51.134;17.058;2023-11-19T05:11:43;2.50;1.00
2611;DHT22;5612;51.134;17.058;2023-11-19T05:14:16;2.50;1.00
2611;DHT22;5612;51.134;17.058;2023-11-19T05:16:45;2.40;1.00
2611;DHT22;5612;51.134;17.058;2023-11-19T05:19:14;2.40;1.00
2611;DHT22;5612;51.134;17.058;2023-11-19T05:21:43;2.40;1.00
2611;DHT22;5612;51.134;17.058;2023-11-19T05:24:12;2.50;1.00
2611;DHT22;5612;51.134;17.058;2023-11-19T05:26:41;2.60;1.00
2611;DHT22;5612;51.134;17.058;2023-11-19T05:29:10;2.50;1.00
2611;DHT22;5612;51.134;17.058;2023-11-19T05:31:40;2.50;1.00
2611;DHT22;5612;51.134;17.058;2023-11-19T05:34:11;2.50;1.00
2611;DHT22;5612;51.134;17.058;2023-11-19T05:36:42;2.60;1.00
2611;DHT22;5612;51.134;17.058;2023-11-19T05:39:11;2.60;1.00
2611;DHT22;5612;51.134;17.058;2023-11-19T05:41:39;2.60;1.00
2611;DHT22;5612;51.134;17.058;2023-11-19T05:44:08;2.60;1.00
2611;DHT22;5612;51.134;17.058;2023-11-19T05:46:37;2.60;1.00
2611;DHT22;5612;51.134;17.058;2023-11-19T05:49:11;2.50;1.00
2611;DHT22;5612;51.134;17.058;2023-11-19T05:51:40;2.50;1.00
2611;DHT22;5612;51.134;17.058;2023-11-19T05:54:10;2.60;1.00
2611;DHT22;5612;51.134;17.058;2023-11-19T05:56:40;2.70;1.00
2611;DHT22;5612;51.134;17.058;2023-11-19T05:59:09;2.70;1.00
2611;DHT22;5612;51.134;17.058;2023-11-19T06:01:42;2.60;1.00
2611;DHT22;5612;51.134;17.058;2023-11-19T06:04:13;2.80;1.00
2611;DHT22;5612;51.134;17.058;2023-11-19T06:06:41;2.80;1.00
2611;DHT22;5612;51.134;17.058;2023-11-19T06:09:11;2.80;1.00
2611;DHT22;5612;51.134;17.058;2023-11-19T06:11:40;2.90;1.00
2611;DHT22;5612;51.134;17.058;2023-11-19T06:14:09;2.80;1.00
2611;DHT22;5612;51.134;17.058;2023-11-19T06:16:38;2.90;1.00
2611;DHT22;5612;51.134;17.058;2023-11-19T06:19:07;2.80;1.00
2611;DHT22;5612;51.134;17.058;2023-11-19T06:21:38;2.90;1.00
2611;DHT22;5612;51.134;17.058;2023-11-19T06:24:08;2.90;1.00
2611;DHT22;5612;51.134;17.058;2023-11-19T06:26:36;2.90;1.00
2611;DHT22;5612;51.134;17.058;2023-11-19T06:29:06;2.90;1.00
2611;DHT22;5612;51.134;17.058;2023-11-19T06:31:34;2.90;1.00
2611;DHT22;5612;51.134;17.058;2023-11-19T06:34:04;2.90;1.00
2611;DHT22;5612;51.134;17.058;2023-11-19T06:36:33;2.90;1.00
2611;DHT22;5612;51.134;17.058;2023-11-19T06:39:03;2.90;1.00
2611;DHT22;5612;51.134;17.058;2023-11-19T06:41:33;2.90;1.00
2611;DHT22;5612;51.134;17.058;2023-11-19T06:44:01;3.00;1.00
2611;DHT22;5612;51.134;17.058;2023-11-19T06:46:30;3.00;1.00
2611;DHT22;5612;51.134;17.058;2023-11-19T06:48:59;2.90;1.00
2611;DHT22;5612;51.134;17.058;2023-11-19T06:51:28;3.00;1.00
2611;DHT22;5612;51.134;17.058;2023-11-19T06:53:57;3.10;1.00
2611;DHT22;5612;51.134;17.058;2023-11-19T06:56:28;3.10;1.00
2611;DHT22;5612;51.134;17.058;2023-11-19T06:58:57;3.20;1.00
2611;DHT22;5612;51.134;17.058;2023-11-19T07:01:25;3.20;1.00
2611;DHT22;5612;51.134;17.058;2023-11-19T07:03:54;3.20;1.00
2611;DHT22;5612;51.134;17.058;2023-11-19T07:06:25;3.20;1.00
2611;DHT22;5612;51.134;17.058;2023-11-19T07:08:57;3.30;1.00
2611;DHT22;5612;51.134;17.058;2023-11-19T07:11:25;3.30;1.00
2611;DHT22;5612;51.134;17.058;2023-11-19T07:13:55;3.30;1.00
2611;DHT22;5612;51.134;17.058;2023-11-19T07:16:24;3.40;1.00
2611;DHT22;5612;51.134;17.058;2023-11-19T07:18:53;3.40;1.00
2611;DHT22;5612;51.134;17.058;2023-11-19T07:21:22;3.40;1.00
2611;DHT22;5612;51.134;17.058;2023-11-19T07:23:50;3.50;1.00
2611;DHT22;5612;51.134;17.058;2023-11-19T07:26:19;3.50;99.90
2611;DHT22;5612;51.134;17.058;2023-11-19T07:28:48;3.60;99.90
2611;DHT22;5612;51.134;17.058;2023-11-19T07:31:18;3.60;99.90
2611;DHT22;5612;51.134;17.058;2023-11-19T07:33:47;3.60;99.90
2611;DHT22;5612;51.134;17.058;2023-11-19T07:36:16;3.60;99.90
2611;DHT22;5612;51.134;17.058;2023-11-19T07:38:46;3.60;99.90
2611;DHT22;5612;51.134;17.058;2023-11-19T07:41:15;3.60;99.90
2611;DHT22;5612;51.134;17.058;2023-11-19T07:43:44;3.70;99.90
2611;DHT22;5612;51.134;17.058;2023-11-19T07:46:14;3.70;99.90
2611;DHT22;5612;51.134;17.058;2023-11-19T07:48:44;3.70;99.90
2611;DHT22;5612;51.134;17.058;2023-11-19T07:51:14;3.70;99.90
2611;DHT22;5612;51.134;17.058;2023-11-19T07:53:43;3.70;99.90
2611;DHT22;5612;51.134;17.058;2023-11-19T07:56:12;3.80;99.90
2611;DHT22;5612;51.134;17.058;2023-11-19T07:58:42;3.90;99.90
2611;DHT22;5612;51.134;17.058;2023-11-19T08:01:11;3.80;1.00
2611;DHT22;5612;51.134;17.058;2023-11-19T08:03:40;3.70;99.90
2611;DHT22;5612;51.134;17.058;2023-11-19T08:06:27;3.70;99.90
2611;DHT22;5612;51.134;17.058;2023-11-19T08:08:55;3.80;99.90
2611;DHT22;5612;51.134;17.058;2023-11-19T08:11:24;3.80;99.90
2611;DHT22;5612;51.134;17.058;2023-11-19T08:13:53;3.80;99.90
2611;DHT22;5612;51.134;17.058;2023-11-19T08:16:21;3.80;99.90
2611;DHT22;5612;51.134;17.058;2023-11-19T08:18:50;3.70;99.90
2611;DHT22;5612;51.134;17.058;2023-11-19T08:21:19;3.60;99.90
2611;DHT22;5612;51.134;17.058;2023-11-19T08:23:51;3.50;1.00
2611;DHT22;5612;51.134;17.058;2023-11-19T08:26:20;3.60;1.00
2611;DHT22;5612;51.134;17.058;2023-11-19T08:28:48;3.60;1.00
2611;DHT22;5612;51.134;17.058;2023-11-19T08:31:19;3.60;1.00
2611;DHT22;5612;51.134;17.058;2023-11-19T08:33:48;3.70;1.00
2611;DHT22;5612;51.134;17.058;2023-11-19T08:36:16;3.60;1.00
2611;DHT22;5612;51.134;17.058;2023-11-19T08:38:45;3.50;1.00
2611;DHT22;5612;51.134;17.058;2023-11-19T08:41:17;3.60;1.00
2611;DHT22;5612;51.134;17.058;2023-11-19T08:43:46;3.50;5.80
2611;DHT22;5612;51.134;17.058;2023-11-19T08:46:15;3.40;44.50
2611;DHT22;5612;51.134;17.058;2023-11-19T08:48:44;3.30;62.30
2611;DHT22;5612;51.134;17.058;2023-11-19T08:51:13;3.00;48.50
2611;DHT22;5612;51.134;17.058;2023-11-19T08:53:42;2.80;99.90
2611;DHT22;5612;51.134;17.058;2023-11-19T08:56:10;2.70;99.90
2611;DHT22;5612;51.134;17.058;2023-11-19T08:58:41;2.60;99.90
2611;DHT22;5612;51.134;17.058;2023-11-19T09:01:09;2.70;99.90
2611;DHT22;5612;51.134;17.058;2023-11-19T09:03:38;2.70;99.90
2611;DHT22;5612;51.134;17.058;2023-11-19T09:06:08;2.70;99.90
2611;DHT22;5612;51.134;17.058;2023-11-19T09:08:37;2.60;99.90
2611;DHT22;5612;51.134;17.058;2023-11-19T09:11:08;2.70;99.90
2611;DHT22;5612;51.134;17.058;2023-11-19T09:13:37;2.90;99.90
2611;DHT22;5612;51.134;17.058;2023-11-19T09:16:11;2.90;99.90
2611;DHT22;5612;51.134;17.058;2023-11-19T09:18:40;3.00;99.90
2611;DHT22;5612;51.134;17.058;2023-11-19T09:21:10;3.00;99.90
2611;DHT22;5612;51.134;17.058;2023-11-19T09:23:39;3.00;99.90
2611;DHT22;5612;51.134;17.058;2023-11-19T09:26:09;3.00;99.90
2611;DHT22;5612;51.134;17.058;2023-11-19T09:28:39;3.00;99.90
2611;DHT22;5612;51.134;17.058;2023-11-19T09:31:18;3.00;99.90
2611;DHT22;5612;51.134;17.058;2023-11-19T09:33:48;3.10;99.90
2611;DHT22;5612;51.134;17.058;2023-11-19T09:36:18;3.20;99.90
2611;DHT22;5612;51.134;17.058;2023-11-19T09:38:48;3.30;99.90
2611;DHT22;5612;51.134;17.058;2023-11-19T09:41:17;3.30;99.90
2611;DHT22;5612;51.134;17.058;2023-11-19T09:43:47;3.40;99.90
2611;DHT22;5612;51.134;17.058;2023-11-19T09:46:17;3.40;99.90
2611;DHT22;5612;51.134;17.058;2023-11-19T09:48:48;3.40;99.90
2611;DHT22;5612;51.134;17.058;2023-11-19T09:51:20;3.50;99.90
2611;DHT22;5612;51.134;17.058;2023-11-19T09:53:49;3.50;99.90
2611;DHT22;5612;51.134;17.058;2023-11-19T09:56:18;3.50;99.90
2611;DHT22;5612;51.134;17.058;2023-11-19T09:58:47;3.60;99.90
2611;DHT22;5612;51.134;17.058;2023-11-19T10:01:15;3.60;99.90
2611;DHT22;5612;51.134;17.058;2023-11-19T10:03:56;3.60;99.90
2611;DHT22;5612;51.134;17.058;2023-11-19T10:06:25;3.70;99.90
2611;DHT22;5612;51.134;17.058;2023-11-19T10:08:55;3.70;99.90
2611;DHT22;5612;51.134;17.058;2023-11-19T10:11:24;3.70;99.90
2611;DHT22;5612;51.134;17.058;2023-11-19T10:13:54;3.70;99.90
2611;DHT22;5612;51.134;17.058;2023-11-19T10:16:28;3.60;99.90
2611;DHT22;5612;51.134;17.058;2023-11-19T10:19:00;3.80;99.90
2611;DHT22;5612;51.134;17.058;2023-11-19T10:21:31;3.70;99.90
2611;DHT22;5612;51.134;17.058;2023-11-19T10:24:02;3.70;99.90
2611;DHT22;5612;51.134;17.058;2023-11-19T10:26:36;3.80;99.90
2611;DHT22;5612;51.134;17.058;2023-11-19T10:29:05;3.90;99.90
2611;DHT22;5612;51.134;17.058;2023-11-19T10:31:34;4.10;99.90
2611;DHT22;5612;51.134;17.058;2023-11-19T10:34:04;4.20;99.90
2611;DHT22;5612;51.134;17.058;2023-11-19T10:36:52;4.30;99.90
2611;DHT22;5612;51.134;17.058;2023-11-19T10:39:21;4.40;99.90
2611;DHT22;5612;51.134;17.058;2023-11-19T10:41:51;4.40;99.90
2611;DHT22;5612;51.134;17.058;2023-11-19T10:44:34;4.50;99.90
2611;DHT22;5612;51.134;17.058;2023-11-19T10:47:06;4.50;99.90
2611;DHT22;5612;51.134;17.058;2023-11-19T10:49:38;4.50;99.90
2611;DHT22;5612;51.134;17.058;2023-11-19T10:52:08;4.50;99.90
2611;DHT22;5612;51.134;17.058;2023-11-19T10:54:39;4.40;99.90
2611;DHT22;5612;51.134;17.058;2023-11-19T10:57:09;4.40;99.90
2611;DHT22;5612;51.134;17.058;2023-11-19T10:59:41;4.40;99.90
2611;DHT22;5612;51.134;17.058;2023-11-19T11:02:16;4.40;99.90
2611;DHT22;5612;51.134;17.058;2023-11-19T11:04:49;4.40;99.90
2611;DHT22;5612;51.134;17.058;2023-11-19T11:07:21;4.40;99.90
2611;DHT22;5612;51.134;17.058;2023-11-19T11:10:07;4.40;99.90
2611;DHT22;5612;51.134;17.058;2023-11-19T11:12:37;4.50;99.90
2611;DHT22;5612;51.134;17.058;2023-11-19T11:15:07;4.50;99.90
2611;DHT22;5612;51.134;17.058;2023-11-19T11:17:39;4.50;99.90
2611;DHT22;5612;51.134;17.058;2023-11-19T11:20:12;4.60;99.90
2611;DHT22;5612;51.134;17.058;2023-11-19T11:23:01;4.60;99.90
2611;DHT22;5612;51.134;17.058;2023-11-19T11:25:41;4.70;99.90
2611;DHT22;5612;51.134;17.058;2023-11-19T11:28:26;4.70;99.90
2611;DHT22;5612;51.134;17.058;2023-11-19T11:31:12;4.70;99.90
2611;DHT22;5612;51.134;17.058;2023-11-19T11:34:04;4.80;99.90
2611;DHT22;5612;51.134;17.058;2023-11-19T11:36:45;4.80;99.90
2611;DHT22;5612;51.134;17.058;2023-11-19T11:39:17;4.70;99.90
2611;DHT22;5612;51.134;17.058;2023-11-19T11:41:46;4.80;99.90
2611;DHT22;5612;51.134;17.058;2023-11-19T11:44:18;4.90;99.90
2611;DHT22;5612;51.134;17.058;2023-11-19T11:47:07;4.90;99.90
2611;DHT22;5612;51.134;17.058;2023-11-19T11:49:35;4.90;99.90
2611;DHT22;5612;51.134;17.058;2023-11-19T11:52:06;4.80;99.90
2611;DHT22;5612;51.134;17.058;2023-11-19T11:54:35;4.90;99.90
2611;DHT22;5612;51.134;17.058;2023-11-19T11:57:07;4.90;99.90
2611;DHT22;5612;51.134;17.058;2023-11-19T11:59:46;5.00;99.90
2611;DHT22;5612;51.134;17.058;2023-11-19T12:02:17;5.10;99.90
2611;DHT22;5612;51.134;17.058;2023-11-19T12:04:49;5.20;99.90
2611;DHT22;5612;51.134;17.058;2023-11-19T12:07:22;5.30;99.90
2611;DHT22;5612;51.134;17.058;2023-11-19T12:09:53;5.30;99.90
2611;DHT22;5612;51.134;17.058;2023-11-19T12:12:26;5.40;99.90
2611;DHT22;5612;51.134;17.058;2023-11-19T12:15:06;5.40;99.90
2611;DHT22;5612;51.134;17.058;2023-11-19T12:17:51;5.40;99.90
2611;DHT22;5612;51.134;17.058;2023-11-19T12:20:21;5.50;99.90
2611;DHT22;5612;51.134;17.058;2023-11-19T12:22:54;5.40;99.90
2611;DHT22;5612;51.134;17.058;2023-11-19T12:25:23;5.40;99.90
2611;DHT22;5612;51.134;17.058;2023-11-19T12:27:53;5.60;99.90
2611;DHT22;5612;51.134;17.058;2023-11-19T12:30:23;5.60;99.90
2611;DHT22;5612;51.134;17.058;2023-11-19T12:32:54;5.70;99.90
2611;DHT22;5612;51.134;17.058;2023-11-19T12:35:23;5.80;99.90
2611;DHT22;5612;51.134;17.058;2023-11-19T12:37:54;5.80;99.90
2611;DHT22;5612;51.134;17.058;2023-11-19T12:40:24;5.80;99.90
2611;DHT22;5612;51.134;17.058;2023-11-19T12:42:56;5.90;99.90
2611;DHT22;5612;51.134;17.058;2023-11-19T12:45:25;6.00;99.90
2611;DHT22;5612;51.134;17.058;2023-11-19T12:48:05;6.10;99.90
2611;DHT22;5612;51.134;17.058;2023-11-19T12:50:53;6.10;99.90
2611;DHT22;5612;51.134;17.058;2023-11-19T12:53:25;6.20;99.90
2611;DHT22;5612;51.134;17.058;2023-11-19T12:55:56;6.50;99.90
2611;DHT22;5612;51.134;17.058;2023-11-19T12:58:36;6.70;99.90
2611;DHT22;5612;51.134;17.058;2023-11-19T13:01:06;6.80;99.90
2611;DHT22;5612;51.134;17.058;2023-11-19T13:03:37;6.90;99.90
2611;DHT22;5612;51.134;17.058;2023-11-19T13:06:09;6.90;99.90
2611;DHT22;5612;51.134;17.058;2023-11-19T13:08:42;7.10;99.90
2611;DHT22;5612;51.134;17.058;2023-11-19T13:11:12;7.30;99.90
2611;DHT22;5612;51.134;17.058;2023-11-19T13:13:54;7.40;99.90
2611;DHT22;5612;51.134;17.058;2023-11-19T13:16:23;7.30;99.90
2611;DHT22;5612;51.134;17.058;2023-11-19T13:18:54;7.50;99.90
2611;DHT22;5612;51.134;17.058;2023-11-19T13:21:24;7.50;99.90
2611;DHT22;5612;51.134;17.058;2023-11-19T13:23:55;7.40;99.90
2611;DHT22;5612;51.134;17.058;2023-11-19T13:26:24;7.60;99.90
2611;DHT22;5612;51.134;17.058;2023-11-19T13:28:53;7.60;99.90
2611;DHT22;5612;51.134;17.058;2023-11-19T13:31:22;7.60;99.90
2611;DHT22;5612;51.134;17.058;2023-11-19T13:33:55;7.40;99.90
2611;DHT22;5612;51.134;17.058;2023-11-19T13:36:25;7.40;99.90
2611;DHT22;5612;51.134;17.058;2023-11-19T13:38:56;7.50;99.90
2611;DHT22;5612;51.134;17.058;2023-11-19T13:41:27;7.90;99.90
2611;DHT22;5612;51.134;17.058;2023-11-19T13:43:56;8.30;99.90
2611;DHT22;5612;51.134;17.058;2023-11-19T13:46:29;8.50;99.90
2611;DHT22;5612;51.134;17.058;2023-11-19T13:48:57;8.40;59.40
2611;DHT22;5612;51.134;17.058;2023-11-19T13:51:26;8.60;91.60
2611;DHT22;5612;51.134;17.058;2023-11-19T13:53:56;8.60;66.90
2611;DHT22;5612;51.134;17.058;2023-11-19T13:56:25;8.60;28.50
2611;DHT22;5612;51.134;17.058;2023-11-19T13:58:55;8.70;36.80
2611;DHT22;5612;51.134;17.058;2023-11-19T14:01:26;8.50;33.60
2611;DHT22;5612;51.134;17.058;2023-11-19T14:03:55;8.40;51.50
2611;DHT22;5612;51.134;17.058;2023-11-19T14:06:24;8.30;51.10
2611;DHT22;5612;51.134;17.058;2023-11-19T14:08:53;8.30;71.00
2611;DHT22;5612;51.134;17.058;2023-11-19T14:11:23;8.30;83.90
2611;DHT22;5612;51.134;17.058;2023-11-19T14:13:52;8.30;91.30
2611;DHT22;5612;51.134;17.058;2023-11-19T14:16:22;8.40;97.00
2611;DHT22;5612;51.134;17.058;2023-11-19T14:18:52;8.40;98.00
2611;DHT22;5612;51.134;17.058;2023-11-19T14:21:22;8.50;93.90
2611;DHT22;5612;51.134;17.058;2023-11-19T14:23:54;8.40;90.60
2611;DHT22;5612;51.134;17.058;2023-11-19T14:26:24;8.40;93.60
2611;DHT22;5612;51.134;17.058;2023-11-19T14:28:53;8.40;96.00
2611;DHT22;5612;51.134;17.058;2023-11-19T14:31:23;8.50;91.80
2611;DHT22;5612;51.134;17.058;2023-11-19T14:33:52;8.60;93.90
2611;DHT22;5612;51.134;17.058;2023-11-19T14:36:23;8.50;90.80
2611;DHT22;5612;51.134;17.058;2023-11-19T14:38:52;8.30;98.40
2611;DHT22;5612;51.134;17.058;2023-11-19T14:41:21;8.20;99.90
2611;DHT22;5612;51.134;17.058;2023-11-19T14:43:51;8.10;99.90
2611;DHT22;5612;51.134;17.058;2023-11-19T14:46:20;8.00;99.90
2611;DHT22;5612;51.134;17.058;2023-11-19T14:48:52;8.00;99.90
2611;DHT22;5612;51.134;17.058;2023-11-19T14:51:21;8.00;99.90
2611;DHT22;5612;51.134;17.058;2023-11-19T14:53:50;8.00;99.90
2611;DHT22;5612;51.134;17.058;2023-11-19T14:56:19;7.90;99.90
2611;DHT22;5612;51.134;17.058;2023-11-19T14:58:48;8.00;99.90
2611;DHT22;5612;51.134;17.058;2023-11-19T15:01:20;7.90;99.90
2611;DHT22;5612;51.134;17.058;2023-11-19T15:03:49;7.90;99.90
2611;DHT22;5612;51.134;17.058;2023-11-19T15:06:23;7.90;99.90
2611;DHT22;5612;51.134;17.058;2023-11-19T15:08:54;7.90;99.90
2611;DHT22;5612;51.134;17.058;2023-11-19T15:11:24;8.10;99.90
2611;DHT22;5612;51.134;17.058;2023-11-19T15:13:53;8.00;99.90
2611;DHT22;5612;51.134;17.058;2023-11-19T15:16:23;8.10;99.90
2611;DHT22;5612;51.134;17.058;2023-11-19T15:18:59;8.20;99.90
2611;DHT22;5612;51.134;17.058;2023-11-19T15:21:31;8.10;99.90
2611;DHT22;5612;51.134;17.058;2023-11-19T15:24:00;8.20;99.90
2611;DHT22;5612;51.134;17.058;2023-11-19T15:26:31;8.30;99.90
2611;DHT22;5612;51.134;17.058;2023-11-19T15:29:01;8.30;99.90
2611;DHT22;5612;51.134;17.058;2023-11-19T15:31:31;8.20;99.90
2611;DHT22;5612;51.134;17.058;2023-11-19T15:34:00;8.10;99.90
2611;DHT22;5612;51.134;17.058;2023-11-19T15:36:30;8.20;99.90
2611;DHT22;5612;51.134;17.058;2023-11-19T15:39:00;8.10;99.90
2611;DHT22;5612;51.134;17.058;2023-11-19T15:41:29;8.10;99.90
2611;DHT22;5612;51.134;17.058;2023-11-19T15:43:58;8.00;99.90
2611;DHT22;5612;51.134;17.058;2023-11-19T15:46:28;7.90;99.90
2611;DHT22;5612;51.134;17.058;2023-11-19T15:48:59;7.90;99.90
2611;DHT22;5612;51.134;17.058;2023-11-19T15:51:28;7.80;99.90
2611;DHT22;5612;51.134;17.058;2023-11-19T15:53:57;7.80;99.90
2611;DHT22;5612;51.134;17.058;2023-11-19T15:56:26;7.80;99.90
2611;DHT22;5612;51.134;17.058;2023-11-19T15:58:56;7.80;99.90
2611;DHT22;5612;51.134;17.058;2023-11-19T16:01:25;7.90;99.90
2611;DHT22;5612;51.134;17.058;2023-11-19T16:03:55;7.90;99.90
2611;DHT22;5612;51.134;17.058;2023-11-19T16:06:25;7.80;99.90
2611;DHT22;5612;51.134;17.058;2023-11-19T16:08:54;7.80;99.90
2611;DHT22;5612;51.134;17.058;2023-11-19T16:11:23;7.80;99.90
2611;DHT22;5612;51.134;17.058;2023-11-19T16:13:53;7.80;99.90
2611;DHT22;5612;51.134;17.058;2023-11-19T16:16:22;7.90;99.90
2611;DHT22;5612;51.134;17.058;2023-11-19T16:18:50;7.90;99.90
2611;DHT22;5612;51.134;17.058;2023-11-19T16:21:20;8.00;99.90
2611;DHT22;5612;51.134;17.058;2023-11-19T16:23:50;8.00;99.90
2611;DHT22;5612;51.134;17.058;2023-11-19T16:26:19;8.10;99.90